RJFMRJFT

Guest
Details From RJFM - MIYAZAKI
To RJFT - KUMAMOTO
Flight Number -
Tags generated
Created
Modified
Stats Distance 65 nm / 120 km
Max Altitude 6,100 ft / 1,859 m
Waypoints 3
Social Downloads 0
Likes 0
Share VATSIM

Download

Looking for another format? Having issues loading an existing format? Contact us
Advertisement - Login to hide

Notes

Basic altitude profile: - Ascent Rate: 2500ft/min - Ascent Speed: 250kts - Cruise Altitude: 10000ft - Cruise Speed: 600kts - Descent Rate: 1500ft/min - Descent Speed: 250kts Options: - Use NATs: yes - Use PACOTS: yes - Use low airways: yes - Use high airways: yes

Route

RJFM KROMA RJFT

ID Type Via Altitude Latitude Longitude Leg Dist Tot Dist Heading (true) Name
O RJFM APT - 0 ft / 0 m 31.87713˚ 131.44845˚ - 0 nm - MIYAZAKI
KROMA FIX - 6,100 ft / 1,859 m 32.41037˚ 131.10709˚ 36 nm 36 nm 332° / 331° -
O RJFT APT - 0 ft / 0 m 32.83732˚ 130.85505˚ 28 nm 65 nm 334° / 333° KUMAMOTO

Altitude Profile

Advertisement - Login to hide

RJFM

Details ICAO RJFM (KMI)
Name MIYAZAKI
Region Japan
Timezone Asia/Tokyo (UTC+9.0)
Stats Elevation 20 ft / 6 m (AMSL)
Location 31.877128° 131.448447°
Runways 1
Magnetic Variation 6.934° W

METAR

RJFM 182200Z 32003KT 9999 FEW030 03/00 Q1025

Decode

TAF

TAF RJFM 181705Z 1818/2000 27010KT 9999 FEW030 SCT050

Decode

Departure Runways

ID Width Length Bearing (true) Bearing (mag) Surface Threshold Offset Overrun Length
09 150 ft / 46 m 8,187 ft / 2,496 m 85.16° 92.09° Asphalt 0 ft / 0 m 200 ft / 61 m
27 150 ft / 46 m 8,187 ft / 2,496 m 265.18° 272.11° Asphalt 0 ft / 0 m 200 ft / 61 m

RJFT

Details ICAO RJFT (KMJ)
Name KUMAMOTO
Region Japan
Timezone Asia/Tokyo (UTC+9.0)
Stats Elevation 642 ft / 196 m (AMSL)
Location 32.837318° 130.855052°
Runways 1
Magnetic Variation 7.226° W

METAR

RJFT 182200Z 15004KT 9999 FEW025 SCT040 BKN060 04/M00 Q1026

Decode

TAF

TAF RJFT 181705Z 1818/2000 10003KT 8000 -SHRASN FEW020 SCT030 BKN040 BECMG 1901/1903 31007KT BECMG 1909/1912 06007KT

Decode

Destination Runways

ID Width Length Bearing (true) Bearing (mag) Surface Threshold Offset Overrun Length
07 150 ft / 46 m 9,833 ft / 2,997 m 64.47° 71.70° Asphalt 0 ft / 0 m 200 ft / 61 m
25 150 ft / 46 m 9,833 ft / 2,997 m 244.49° 251.72° Asphalt 0 ft / 0 m 200 ft / 61 m

Approach Navaids

Runway Type Ident Frequency Range Bearing (true) Bearing (mag) Slope Elevation
07 Localiser IKU 109.30 MHz 18 nm / 33 km 64.49° 71.72° - 642 ft / 196 m (AMSL)
07 Glidescope IKU 109.30 MHz 10 nm / 19 km 64.48° 71.71° 3.00° 651 ft / 198 m (AMSL)